sensor_id;sensor_type;location;lat;lon;timestamp;temperature;humidity
22850;DHT22;11591;44.792;10.358;2023-04-24T00:00:02;17.20;99.90
22850;DHT22;11591;44.792;10.358;2023-04-24T00:02:31;17.20;99.90
22850;DHT22;11591;44.792;10.358;2023-04-24T00:04:58;17.20;99.90
22850;DHT22;11591;44.792;10.358;2023-04-24T00:07:31;17.20;99.90
22850;DHT22;11591;44.792;10.358;2023-04-24T00:09:57;17.20;99.90
22850;DHT22;11591;44.792;10.358;2023-04-24T00:12:23;17.30;99.90
22850;DHT22;11591;44.792;10.358;2023-04-24T00:14:49;17.30;99.90
22850;DHT22;11591;44.792;10.358;2023-04-24T00:17:15;17.30;99.90
22850;DHT22;11591;44.792;10.358;2023-04-24T00:19:41;17.40;99.90
22850;DHT22;11591;44.792;10.358;2023-04-24T00:22:07;17.40;99.90
22850;DHT22;11591;44.792;10.358;2023-04-24T00:24:33;17.40;99.90
22850;DHT22;11591;44.792;10.358;2023-04-24T00:26:59;17.40;99.90
22850;DHT22;11591;44.792;10.358;2023-04-24T00:29:26;17.50;99.90
22850;DHT22;11591;44.792;10.358;2023-04-24T00:31:52;17.40;99.90
22850;DHT22;11591;44.792;10.358;2023-04-24T00:34:17;17.20;99.90
22850;DHT22;11591;44.792;10.358;2023-04-24T00:36:43;17.00;99.90
22850;DHT22;11591;44.792;10.358;2023-04-24T00:39:10;17.00;99.90
22850;DHT22;11591;44.792;10.358;2023-04-24T00:41:36;17.00;99.90
22850;DHT22;11591;44.792;10.358;2023-04-24T00:44:01;17.10;99.90
22850;DHT22;11591;44.792;10.358;2023-04-24T00:46:28;17.00;99.90
22850;DHT22;11591;44.792;10.358;2023-04-24T00:48:54;17.10;99.90
22850;DHT22;11591;44.792;10.358;2023-04-24T00:51:21;17.00;99.90
22850;DHT22;11591;44.792;10.358;2023-04-24T00:53:50;16.70;99.90
22850;DHT22;11591;44.792;10.358;2023-04-24T00:56:16;16.60;99.90
22850;DHT22;11591;44.792;10.358;2023-04-24T00:58:43;16.50;99.90
22850;DHT22;11591;44.792;10.358;2023-04-24T01:01:10;16.50;99.90
22850;DHT22;11591;44.792;10.358;2023-04-24T01:03:37;16.50;99.90
22850;DHT22;11591;44.792;10.358;2023-04-24T01:06:04;16.60;99.90
22850;DHT22;11591;44.792;10.358;2023-04-24T01:08:30;16.70;99.90
22850;DHT22;11591;44.792;10.358;2023-04-24T01:10:57;16.80;99.90
22850;DHT22;11591;44.792;10.358;2023-04-24T01:13:23;16.80;99.90
22850;DHT22;11591;44.792;10.358;2023-04-24T01:15:49;16.80;99.90
22850;DHT22;11591;44.792;10.358;2023-04-24T01:18:15;16.80;99.90
22850;DHT22;11591;44.792;10.358;2023-04-24T01:20:42;16.80;99.90
22850;DHT22;11591;44.792;10.358;2023-04-24T01:23:10;16.70;99.90
22850;DHT22;11591;44.792;10.358;2023-04-24T01:25:36;16.70;99.90
22850;DHT22;11591;44.792;10.358;2023-04-24T01:28:03;16.60;99.90
22850;DHT22;11591;44.792;10.358;2023-04-24T01:30:31;16.60;99.90
22850;DHT22;11591;44.792;10.358;2023-04-24T01:32:58;16.60;99.90
22850;DHT22;11591;44.792;10.358;2023-04-24T01:35:24;16.60;99.90
22850;DHT22;11591;44.792;10.358;2023-04-24T01:37:51;16.60;99.90
22850;DHT22;11591;44.792;10.358;2023-04-24T01:40:16;16.50;99.90
22850;DHT22;11591;44.792;10.358;2023-04-24T01:42:42;16.50;99.90
22850;DHT22;11591;44.792;10.358;2023-04-24T01:45:11;16.50;99.90
22850;DHT22;11591;44.792;10.358;2023-04-24T01:47:37;16.50;99.90
22850;DHT22;11591;44.792;10.358;2023-04-24T01:50:04;16.50;99.90
22850;DHT22;11591;44.792;10.358;2023-04-24T01:52:31;16.40;99.90
22850;DHT22;11591;44.792;10.358;2023-04-24T01:55:02;16.30;99.90
22850;DHT22;11591;44.792;10.358;2023-04-24T01:57:30;16.20;99.90
22850;DHT22;11591;44.792;10.358;2023-04-24T01:59:56;16.10;99.90
22850;DHT22;11591;44.792;10.358;2023-04-24T02:02:22;16.10;99.90
22850;DHT22;11591;44.792;10.358;2023-04-24T02:04:50;16.00;99.90
22850;DHT22;11591;44.792;10.358;2023-04-24T02:07:16;16.00;99.90
22850;DHT22;11591;44.792;10.358;2023-04-24T02:09:42;16.00;99.90
22850;DHT22;11591;44.792;10.358;2023-04-24T02:12:07;16.00;99.90
22850;DHT22;11591;44.792;10.358;2023-04-24T02:14:33;15.90;99.90
22850;DHT22;11591;44.792;10.358;2023-04-24T02:16:59;15.80;99.90
22850;DHT22;11591;44.792;10.358;2023-04-24T02:19:26;15.70;99.90
22850;DHT22;11591;44.792;10.358;2023-04-24T02:21:52;15.70;99.90
22850;DHT22;11591;44.792;10.358;2023-04-24T02:24:17;15.60;99.90
22850;DHT22;11591;44.792;10.358;2023-04-24T02:26:43;15.60;99.90
22850;DHT22;11591;44.792;10.358;2023-04-24T02:29:09;15.60;99.90
22850;DHT22;11591;44.792;10.358;2023-04-24T02:31:35;15.60;99.90
22850;DHT22;11591;44.792;10.358;2023-04-24T02:34:00;15.60;99.90
22850;DHT22;11591;44.792;10.358;2023-04-24T02:36:26;15.60;99.90
22850;DHT22;11591;44.792;10.358;2023-04-24T02:38:52;15.70;99.90
22850;DHT22;11591;44.792;10.358;2023-04-24T02:41:18;15.70;99.90
22850;DHT22;11591;44.792;10.358;2023-04-24T02:43:44;15.80;99.90
22850;DHT22;11591;44.792;10.358;2023-04-24T02:46:09;15.80;99.90
22850;DHT22;11591;44.792;10.358;2023-04-24T02:48:35;15.60;99.90
22850;DHT22;11591;44.792;10.358;2023-04-24T02:51:01;15.60;99.90
22850;DHT22;11591;44.792;10.358;2023-04-24T02:53:27;15.20;99.90
22850;DHT22;11591;44.792;10.358;2023-04-24T02:55:55;15.00;99.90
22850;DHT22;11591;44.792;10.358;2023-04-24T02:58:21;15.10;99.90
22850;DHT22;11591;44.792;10.358;2023-04-24T03:00:47;15.00;99.90
22850;DHT22;11591;44.792;10.358;2023-04-24T03:03:13;15.00;99.90
22850;DHT22;11591;44.792;10.358;2023-04-24T03:05:39;14.90;99.90
22850;DHT22;11591;44.792;10.358;2023-04-24T03:08:05;14.90;99.90
22850;DHT22;11591;44.792;10.358;2023-04-24T03:10:31;15.10;99.90
22850;DHT22;11591;44.792;10.358;2023-04-24T03:12:57;15.20;99.90
22850;DHT22;11591;44.792;10.358;2023-04-24T03:15:23;15.40;99.90
22850;DHT22;11591;44.792;10.358;2023-04-24T03:17:49;15.50;99.90
22850;DHT22;11591;44.792;10.358;2023-04-24T03:20:15;15.50;99.90
22850;DHT22;11591;44.792;10.358;2023-04-24T03:22:41;15.60;99.90
22850;DHT22;11591;44.792;10.358;2023-04-24T03:25:08;15.60;99.90
22850;DHT22;11591;44.792;10.358;2023-04-24T03:27:35;15.70;99.90
22850;DHT22;11591;44.792;10.358;2023-04-24T03:30:06;15.70;99.90
22850;DHT22;11591;44.792;10.358;2023-04-24T03:32:41;15.80;99.90
22850;DHT22;11591;44.792;10.358;2023-04-24T03:35:10;15.80;99.90
22850;DHT22;11591;44.792;10.358;2023-04-24T03:37:37;15.80;99.90
22850;DHT22;11591;44.792;10.358;2023-04-24T03:40:34;15.80;99.90
22850;DHT22;11591;44.792;10.358;2023-04-24T03:43:04;15.90;99.90
22850;DHT22;11591;44.792;10.358;2023-04-24T03:45:30;15.90;99.90
22850;DHT22;11591;44.792;10.358;2023-04-24T03:47:56;15.90;99.90
22850;DHT22;11591;44.792;10.358;2023-04-24T03:50:22;15.70;99.90
22850;DHT22;11591;44.792;10.358;2023-04-24T03:52:48;15.40;99.90
22850;DHT22;11591;44.792;10.358;2023-04-24T03:55:24;15.20;99.90
22850;DHT22;11591;44.792;10.358;2023-04-24T03:57:50;15.10;99.90
22850;DHT22;11591;44.792;10.358;2023-04-24T04:00:21;14.90;99.90
22850;DHT22;11591;44.792;10.358;2023-04-24T04:02:53;14.60;99.90
22850;DHT22;11591;44.792;10.358;2023-04-24T04:05:19;14.10;99.90
22850;DHT22;11591;44.792;10.358;2023-04-24T04:07:45;14.00;99.90
22850;DHT22;11591;44.792;10.358;2023-04-24T04:10:11;13.80;99.90
22850;DHT22;11591;44.792;10.358;2023-04-24T04:12:36;13.90;99.90
22850;DHT22;11591;44.792;10.358;2023-04-24T04:15:02;14.10;99.90
22850;DHT22;11591;44.792;10.358;2023-04-24T04:17:29;14.10;99.90
22850;DHT22;11591;44.792;10.358;2023-04-24T04:19:56;14.10;99.90
22850;DHT22;11591;44.792;10.358;2023-04-24T04:22:22;14.10;99.90
22850;DHT22;11591;44.792;10.358;2023-04-24T04:24:50;14.10;99.90
22850;DHT22;11591;44.792;10.358;2023-04-24T04:27:19;14.00;99.90
22850;DHT22;11591;44.792;10.358;2023-04-24T04:30:02;14.10;99.90
22850;DHT22;11591;44.792;10.358;2023-04-24T04:32:34;14.30;99.90
22850;DHT22;11591;44.792;10.358;2023-04-24T04:35:01;14.40;99.90
22850;DHT22;11591;44.792;10.358;2023-04-24T04:37:32;14.50;99.90
22850;DHT22;11591;44.792;10.358;2023-04-24T04:40:09;14.50;99.90
22850;DHT22;11591;44.792;10.358;2023-04-24T04:42:43;14.60;99.90
22850;DHT22;11591;44.792;10.358;2023-04-24T04:45:12;14.60;99.90
22850;DHT22;11591;44.792;10.358;2023-04-24T04:47:53;14.70;99.90
22850;DHT22;11591;44.792;10.358;2023-04-24T04:50:20;14.70;99.90
22850;DHT22;11591;44.792;10.358;2023-04-24T04:52:48;14.80;99.90
22850;DHT22;11591;44.792;10.358;2023-04-24T04:55:22;14.70;99.90
22850;DHT22;11591;44.792;10.358;2023-04-24T04:58:19;14.70;99.90
22850;DHT22;11591;44.792;10.358;2023-04-24T05:00:50;14.70;99.90
22850;DHT22;11591;44.792;10.358;2023-04-24T05:03:27;14.80;99.90
22850;DHT22;11591;44.792;10.358;2023-04-24T05:05:59;14.80;99.90
22850;DHT22;11591;44.792;10.358;2023-04-24T05:08:26;14.80;99.90
22850;DHT22;11591;44.792;10.358;2023-04-24T05:10:52;14.80;99.90
22850;DHT22;11591;44.792;10.358;2023-04-24T05:13:18;14.80;99.90
22850;DHT22;11591;44.792;10.358;2023-04-24T05:15:44;14.70;99.90
22850;DHT22;11591;44.792;10.358;2023-04-24T05:18:10;14.70;99.90
22850;DHT22;11591;44.792;10.358;2023-04-24T05:20:36;14.60;99.90
22850;DHT22;11591;44.792;10.358;2023-04-24T05:23:03;14.60;99.90
22850;DHT22;11591;44.792;10.358;2023-04-24T05:25:29;14.60;99.90
22850;DHT22;11591;44.792;10.358;2023-04-24T05:28:04;14.60;99.90
22850;DHT22;11591;44.792;10.358;2023-04-24T05:30:32;14.50;99.90
22850;DHT22;11591;44.792;10.358;2023-04-24T05:32:57;14.50;99.90
22850;DHT22;11591;44.792;10.358;2023-04-24T05:35:23;14.50;99.90
22850;DHT22;11591;44.792;10.358;2023-04-24T05:37:50;14.50;99.90
22850;DHT22;11591;44.792;10.358;2023-04-24T05:40:16;14.40;99.90
22850;DHT22;11591;44.792;10.358;2023-04-24T05:42:42;14.30;99.90
22850;DHT22;11591;44.792;10.358;2023-04-24T05:45:08;14.30;99.90
22850;DHT22;11591;44.792;10.358;2023-04-24T05:47:36;14.30;99.90
22850;DHT22;11591;44.792;10.358;2023-04-24T05:50:02;14.30;99.90
22850;DHT22;11591;44.792;10.358;2023-04-24T05:52:28;14.20;99.90
22850;DHT22;11591;44.792;10.358;2023-04-24T05:54:54;14.20;99.90
22850;DHT22;11591;44.792;10.358;2023-04-24T05:57:24;14.30;99.90
22850;DHT22;11591;44.792;10.358;2023-04-24T05:59:57;14.30;99.90
22850;DHT22;11591;44.792;10.358;2023-04-24T06:02:24;14.30;99.90
22850;DHT22;11591;44.792;10.358;2023-04-24T06:04:50;14.30;99.90
22850;DHT22;11591;44.792;10.358;2023-04-24T06:07:17;14.30;99.90
22850;DHT22;11591;44.792;10.358;2023-04-24T06:09:44;14.30;99.90
22850;DHT22;11591;44.792;10.358;2023-04-24T06:12:10;14.10;99.90
22850;DHT22;11591;44.792;10.358;2023-04-24T06:14:53;14.10;99.90
22850;DHT22;11591;44.792;10.358;2023-04-24T06:17:26;14.00;99.90
22850;DHT22;11591;44.792;10.358;2023-04-24T06:19:51;14.00;99.90
22850;DHT22;11591;44.792;10.358;2023-04-24T06:22:19;14.00;99.90
22850;DHT22;11591;44.792;10.358;2023-04-24T06:24:46;14.20;99.90
22850;DHT22;11591;44.792;10.358;2023-04-24T06:27:13;14.40;99.90
22850;DHT22;11591;44.792;10.358;2023-04-24T06:29:40;14.40;99.90
22850;DHT22;11591;44.792;10.358;2023-04-24T06:32:06;14.50;99.90
22850;DHT22;11591;44.792;10.358;2023-04-24T06:34:31;14.60;99.90
22850;DHT22;11591;44.792;10.358;2023-04-24T06:36:59;14.70;99.90
22850;DHT22;11591;44.792;10.358;2023-04-24T06:39:25;14.80;99.90
22850;DHT22;11591;44.792;10.358;2023-04-24T06:41:51;14.90;99.90
22850;DHT22;11591;44.792;10.358;2023-04-24T06:44:19;14.90;99.90
22850;DHT22;11591;44.792;10.358;2023-04-24T06:46:45;14.90;99.90
22850;DHT22;11591;44.792;10.358;2023-04-24T06:49:11;15.00;99.90
22850;DHT22;11591;44.792;10.358;2023-04-24T06:51:37;15.00;99.90
22850;DHT22;11591;44.792;10.358;2023-04-24T06:54:02;15.00;99.90
22850;DHT22;11591;44.792;10.358;2023-04-24T06:56:28;15.10;99.90
22850;DHT22;11591;44.792;10.358;2023-04-24T06:58:57;15.10;99.90
22850;DHT22;11591;44.792;10.358;2023-04-24T07:01:22;15.20;99.90
22850;DHT22;11591;44.792;10.358;2023-04-24T07:03:48;15.20;99.90
22850;DHT22;11591;44.792;10.358;2023-04-24T07:06:14;15.30;99.90
22850;DHT22;11591;44.792;10.358;2023-04-24T07:08:41;15.30;99.90
22850;DHT22;11591;44.792;10.358;2023-04-24T07:11:07;15.40;99.90
22850;DHT22;11591;44.792;10.358;2023-04-24T07:13:33;15.40;99.90
22850;DHT22;11591;44.792;10.358;2023-04-24T07:16:00;15.40;99.90
22850;DHT22;11591;44.792;10.358;2023-04-24T07:18:26;15.40;99.90
22850;DHT22;11591;44.792;10.358;2023-04-24T07:20:52;15.50;99.90
22850;DHT22;11591;44.792;10.358;2023-04-24T07:23:19;15.50;99.90
22850;DHT22;11591;44.792;10.358;2023-04-24T07:25:45;15.50;99.90
22850;DHT22;11591;44.792;10.358;2023-04-24T07:28:11;15.50;99.90
22850;DHT22;11591;44.792;10.358;2023-04-24T07:30:36;15.50;99.90
22850;DHT22;11591;44.792;10.358;2023-04-24T07:33:02;15.50;99.90
22850;DHT22;11591;44.792;10.358;2023-04-24T07:35:28;15.60;99.90
22850;DHT22;11591;44.792;10.358;2023-04-24T07:37:54;15.60;99.90
22850;DHT22;11591;44.792;10.358;2023-04-24T07:40:20;15.70;99.90
22850;DHT22;11591;44.792;10.358;2023-04-24T07:42:46;15.70;99.90
22850;DHT22;11591;44.792;10.358;2023-04-24T07:45:14;15.70;99.90
22850;DHT22;11591;44.792;10.358;2023-04-24T07:47:41;15.70;99.90
22850;DHT22;11591;44.792;10.358;2023-04-24T07:50:09;15.80;99.90
22850;DHT22;11591;44.792;10.358;2023-04-24T07:52:35;15.80;99.90
22850;DHT22;11591;44.792;10.358;2023-04-24T07:55:01;15.90;99.90
22850;DHT22;11591;44.792;10.358;2023-04-24T07:57:28;15.80;99.90
22850;DHT22;11591;44.792;10.358;2023-04-24T07:59:54;15.80;99.90
22850;DHT22;11591;44.792;10.358;2023-04-24T08:02:20;15.90;99.90
22850;DHT22;11591;44.792;10.358;2023-04-24T08:04:54;15.90;99.90
22850;DHT22;11591;44.792;10.358;2023-04-24T08:07:20;15.90;99.90
22850;DHT22;11591;44.792;10.358;2023-04-24T08:09:46;16.00;99.90
22850;DHT22;11591;44.792;10.358;2023-04-24T08:12:12;16.00;99.90
22850;DHT22;11591;44.792;10.358;2023-04-24T08:14:38;16.00;99.90
22850;DHT22;11591;44.792;10.358;2023-04-24T08:17:03;16.10;99.90
22850;DHT22;11591;44.792;10.358;2023-04-24T08:19:29;16.10;99.90
22850;DHT22;11591;44.792;10.358;2023-04-24T08:21:55;16.20;99.90
22850;DHT22;11591;44.792;10.358;2023-04-24T08:24:22;16.20;99.90
22850;DHT22;11591;44.792;10.358;2023-04-24T08:26:48;16.30;99.90
22850;DHT22;11591;44.792;10.358;2023-04-24T08:29:20;16.40;99.90
22850;DHT22;11591;44.792;10.358;2023-04-24T08:31:46;16.40;99.90
22850;DHT22;11591;44.792;10.358;2023-04-24T08:34:12;16.40;99.90
22850;DHT22;11591;44.792;10.358;2023-04-24T08:36:37;16.50;99.90
22850;DHT22;11591;44.792;10.358;2023-04-24T08:39:03;16.60;99.90
22850;DHT22;11591;44.792;10.358;2023-04-24T08:41:30;16.60;99.90
22850;DHT22;11591;44.792;10.358;2023-04-24T08:43:56;16.70;99.90
22850;DHT22;11591;44.792;10.358;2023-04-24T08:46:24;16.70;99.90
22850;DHT22;11591;44.792;10.358;2023-04-24T08:48:52;16.70;99.90
22850;DHT22;11591;44.792;10.358;2023-04-24T08:51:18;16.70;99.90
22850;DHT22;11591;44.792;10.358;2023-04-24T08:53:45;16.70;99.90
22850;DHT22;11591;44.792;10.358;2023-04-24T08:56:11;16.80;99.90
22850;DHT22;11591;44.792;10.358;2023-04-24T08:58:39;16.90;99.90
22850;DHT22;11591;44.792;10.358;2023-04-24T09:01:05;17.00;99.90
22850;DHT22;11591;44.792;10.358;2023-04-24T09:03:31;17.00;99.90
22850;DHT22;11591;44.792;10.358;2023-04-24T09:05:59;17.10;99.90
22850;DHT22;11591;44.792;10.358;2023-04-24T09:08:26;17.10;99.90
22850;DHT22;11591;44.792;10.358;2023-04-24T09:10:53;17.10;99.90
22850;DHT22;11591;44.792;10.358;2023-04-24T09:13:19;17.10;99.90
22850;DHT22;11591;44.792;10.358;2023-04-24T09:15:45;17.20;99.90
22850;DHT22;11591;44.792;10.358;2023-04-24T09:18:11;17.40;99.90
22850;DHT22;11591;44.792;10.358;2023-04-24T09:20:59;17.50;99.90
22850;DHT22;11591;44.792;10.358;2023-04-24T09:23:30;17.60;99.90
22850;DHT22;11591;44.792;10.358;2023-04-24T09:25:57;17.60;99.90
22850;DHT22;11591;44.792;10.358;2023-04-24T09:28:40;17.70;99.90
22850;DHT22;11591;44.792;10.358;2023-04-24T09:31:08;17.70;99.90
22850;DHT22;11591;44.792;10.358;2023-04-24T09:33:35;17.80;99.90
22850;DHT22;11591;44.792;10.358;2023-04-24T09:36:01;17.80;99.90
22850;DHT22;11591;44.792;10.358;2023-04-24T09:38:31;17.90;99.90
22850;DHT22;11591;44.792;10.358;2023-04-24T09:41:04;17.80;99.90
22850;DHT22;11591;44.792;10.358;2023-04-24T09:43:31;17.80;99.90
22850;DHT22;11591;44.792;10.358;2023-04-24T09:45:58;17.80;99.90
22850;DHT22;11591;44.792;10.358;2023-04-24T09:48:34;17.80;99.90
22850;DHT22;11591;44.792;10.358;2023-04-24T09:51:03;17.80;99.90
22850;DHT22;11591;44.792;10.358;2023-04-24T09:53:30;17.80;99.90
22850;DHT22;11591;44.792;10.358;2023-04-24T09:56:03;18.00;99.90
22850;DHT22;11591;44.792;10.358;2023-04-24T09:58:29;18.00;99.90
22850;DHT22;11591;44.792;10.358;2023-04-24T10:00:59;18.00;99.90
22850;DHT22;11591;44.792;10.358;2023-04-24T10:03:25;18.00;99.90
22850;DHT22;11591;44.792;10.358;2023-04-24T10:05:53;18.10;99.90
22850;DHT22;11591;44.792;10.358;2023-04-24T10:08:19;18.10;99.90
22850;DHT22;11591;44.792;10.358;2023-04-24T10:10:46;18.10;99.90
22850;DHT22;11591;44.792;10.358;2023-04-24T10:13:13;18.10;99.90
22850;DHT22;11591;44.792;10.358;2023-04-24T10:15:41;18.20;99.90
22850;DHT22;11591;44.792;10.358;2023-04-24T10:18:08;18.10;99.90
22850;DHT22;11591;44.792;10.358;2023-04-24T10:20:36;18.10;99.90
22850;DHT22;11591;44.792;10.358;2023-04-24T10:23:03;18.20;99.90
22850;DHT22;11591;44.792;10.358;2023-04-24T10:25:34;18.20;99.90
22850;DHT22;11591;44.792;10.358;2023-04-24T10:28:01;18.20;99.90
22850;DHT22;11591;44.792;10.358;2023-04-24T10:30:30;18.20;99.90
22850;DHT22;11591;44.792;10.358;2023-04-24T10:32:56;18.30;99.90
22850;DHT22;11591;44.792;10.358;2023-04-24T10:35:22;18.40;99.90
22850;DHT22;11591;44.792;10.358;2023-04-24T10:38:01;18.40;99.90
22850;DHT22;11591;44.792;10.358;2023-04-24T10:40:35;18.50;99.90
22850;DHT22;11591;44.792;10.358;2023-04-24T10:43:08;18.60;99.90
22850;DHT22;11591;44.792;10.358;2023-04-24T10:45:37;18.60;99.90
22850;DHT22;11591;44.792;10.358;2023-04-24T10:48:05;18.50;99.90
22850;DHT22;11591;44.792;10.358;2023-04-24T10:50:46;18.50;99.90
22850;DHT22;11591;44.792;10.358;2023-04-24T10:53:17;18.60;99.90
22850;DHT22;11591;44.792;10.358;2023-04-24T10:58:12;18.70;99.90
22850;DHT22;11591;44.792;10.358;2023-04-24T11:00:39;18.70;99.90
22850;DHT22;11591;44.792;10.358;2023-04-24T11:03:24;18.80;99.90
22850;DHT22;11591;44.792;10.358;2023-04-24T11:05:59;18.80;99.90
22850;DHT22;11591;44.792;10.358;2023-04-24T11:08:30;18.80;99.90
22850;DHT22;11591;44.792;10.358;2023-04-24T11:11:10;18.80;99.90
22850;DHT22;11591;44.792;10.358;2023-04-24T11:14:09;18.80;99.90
22850;DHT22;11591;44.792;10.358;2023-04-24T11:16:42;18.80;99.90
22850;DHT22;11591;44.792;10.358;2023-04-24T11:21:46;19.00;99.90
22850;DHT22;11591;44.792;10.358;2023-04-24T11:27:06;19.00;99.90
22850;DHT22;11591;44.792;10.358;2023-04-24T11:29:43;19.10;99.90
22850;DHT22;11591;44.792;10.358;2023-04-24T11:32:27;19.10;99.90
22850;DHT22;11591;44.792;10.358;2023-04-24T11:37:26;19.00;99.90
22850;DHT22;11591;44.792;10.358;2023-04-24T11:39:57;19.10;99.90
22850;DHT22;11591;44.792;10.358;2023-04-24T11:42:24;19.20;99.90
22850;DHT22;11591;44.792;10.358;2023-04-24T11:44:55;19.20;99.90
22850;DHT22;11591;44.792;10.358;2023-04-24T11:47:31;19.30;99.90
22850;DHT22;11591;44.792;10.358;2023-04-24T11:49:59;19.30;99.90
22850;DHT22;11591;44.792;10.358;2023-04-24T11:52:25;19.30;99.90
22850;DHT22;11591;44.792;10.358;2023-04-24T11:54:54;19.30;99.90
22850;DHT22;11591;44.792;10.358;2023-04-24T11:57:20;19.30;99.90
22850;DHT22;11591;44.792;10.358;2023-04-24T11:59:47;19.40;99.90
22850;DHT22;11591;44.792;10.358;2023-04-24T12:02:23;19.50;99.90
22850;DHT22;11591;44.792;10.358;2023-04-24T12:04:48;19.50;99.90
22850;DHT22;11591;44.792;10.358;2023-04-24T12:07:14;19.60;99.90
22850;DHT22;11591;44.792;10.358;2023-04-24T12:09:45;19.70;99.90
22850;DHT22;11591;44.792;10.358;2023-04-24T12:12:12;19.80;99.90
22850;DHT22;11591;44.792;10.358;2023-04-24T12:14:46;19.90;99.90
22850;DHT22;11591;44.792;10.358;2023-04-24T12:17:12;20.00;99.90
22850;DHT22;11591;44.792;10.358;2023-04-24T12:19:44;19.90;99.90
22850;DHT22;11591;44.792;10.358;2023-04-24T12:22:10;19.90;99.90
22850;DHT22;11591;44.792;10.358;2023-04-24T12:24:54;19.90;99.90
22850;DHT22;11591;44.792;10.358;2023-04-24T12:27:22;20.00;99.90
22850;DHT22;11591;44.792;10.358;2023-04-24T12:29:58;20.00;99.90
22850;DHT22;11591;44.792;10.358;2023-04-24T12:32:24;20.00;99.90
22850;DHT22;11591;44.792;10.358;2023-04-24T12:34:51;20.10;99.90
22850;DHT22;11591;44.792;10.358;2023-04-24T12:37:17;20.00;99.90
22850;DHT22;11591;44.792;10.358;2023-04-24T12:40:03;20.10;99.90
22850;DHT22;11591;44.792;10.358;2023-04-24T12:42:30;20.10;99.90
22850;DHT22;11591;44.792;10.358;2023-04-24T12:44:57;20.00;99.90
22850;DHT22;11591;44.792;10.358;2023-04-24T12:47:24;20.10;99.90
22850;DHT22;11591;44.792;10.358;2023-04-24T12:49:50;20.20;99.90
22850;DHT22;11591;44.792;10.358;2023-04-24T12:52:18;20.20;99.90
22850;DHT22;11591;44.792;10.358;2023-04-24T12:54:50;20.20;99.90
22850;DHT22;11591;44.792;10.358;2023-04-24T12:57:21;20.30;99.90
22850;DHT22;11591;44.792;10.358;2023-04-24T12:59:47;20.30;99.90
22850;DHT22;11591;44.792;10.358;2023-04-24T13:02:13;20.50;99.90
22850;DHT22;11591;44.792;10.358;2023-04-24T13:04:41;20.50;99.90
22850;DHT22;11591;44.792;10.358;2023-04-24T13:07:07;20.60;99.90
22850;DHT22;11591;44.792;10.358;2023-04-24T13:09:37;20.80;99.90
22850;DHT22;11591;44.792;10.358;2023-04-24T13:12:04;20.90;99.90
22850;DHT22;11591;44.792;10.358;2023-04-24T13:14:32;20.90;99.90
22850;DHT22;11591;44.792;10.358;2023-04-24T13:16:58;20.90;99.90
22850;DHT22;11591;44.792;10.358;2023-04-24T13:19:25;20.90;99.90
22850;DHT22;11591;44.792;10.358;2023-04-24T13:21:54;20.90;99.90
22850;DHT22;11591;44.792;10.358;2023-04-24T13:24:21;21.00;99.90
22850;DHT22;11591;44.792;10.358;2023-04-24T13:26:51;21.00;99.90
22850;DHT22;11591;44.792;10.358;2023-04-24T13:29:17;21.00;99.90
22850;DHT22;11591;44.792;10.358;2023-04-24T13:31:43;21.00;99.90
22850;DHT22;11591;44.792;10.358;2023-04-24T13:34:11;21.10;99.90
22850;DHT22;11591;44.792;10.358;2023-04-24T13:36:39;21.20;99.90
22850;DHT22;11591;44.792;10.358;2023-04-24T13:39:06;21.30;99.90
22850;DHT22;11591;44.792;10.358;2023-04-24T13:41:33;21.40;99.90
22850;DHT22;11591;44.792;10.358;2023-04-24T13:43:59;21.50;99.90
22850;DHT22;11591;44.792;10.358;2023-04-24T13:46:25;21.60;99.90
22850;DHT22;11591;44.792;10.358;2023-04-24T13:48:53;21.70;99.90
22850;DHT22;11591;44.792;10.358;2023-04-24T13:51:23;21.80;99.90
22850;DHT22;11591;44.792;10.358;2023-04-24T13:53:49;21.80;99.90
22850;DHT22;11591;44.792;10.358;2023-04-24T13:56:15;21.90;99.90
22850;DHT22;11591;44.792;10.358;2023-04-24T13:58:43;21.90;99.90
22850;DHT22;11591;44.792;10.358;2023-04-24T14:01:09;21.90;99.90
22850;DHT22;11591;44.792;10.358;2023-04-24T14:03:37;21.90;99.90
22850;DHT22;11591;44.792;10.358;2023-04-24T14:06:03;21.90;99.90
22850;DHT22;11591;44.792;10.358;2023-04-24T14:08:29;22.00;99.90
22850;DHT22;11591;44.792;10.358;2023-04-24T14:10:55;22.10;99.90
22850;DHT22;11591;44.792;10.358;2023-04-24T14:13:21;22.20;99.90
22850;DHT22;11591;44.792;10.358;2023-04-24T14:15:47;22.40;99.90
22850;DHT22;11591;44.792;10.358;2023-04-24T14:18:13;22.60;99.90
22850;DHT22;11591;44.792;10.358;2023-04-24T14:20:38;22.80;99.90
22850;DHT22;11591;44.792;10.358;2023-04-24T14:23:04;23.10;99.90
22850;DHT22;11591;44.792;10.358;2023-04-24T14:25:30;23.30;99.90
22850;DHT22;11591;44.792;10.358;2023-04-24T14:27:56;23.50;99.90
22850;DHT22;11591;44.792;10.358;2023-04-24T14:30:22;23.60;99.90
22850;DHT22;11591;44.792;10.358;2023-04-24T14:32:48;23.90;99.90
22850;DHT22;11591;44.792;10.358;2023-04-24T14:35:14;24.10;99.90
22850;DHT22;11591;44.792;10.358;2023-04-24T14:37:40;24.30;99.90
22850;DHT22;11591;44.792;10.358;2023-04-24T14:40:07;24.50;99.90
22850;DHT22;11591;44.792;10.358;2023-04-24T14:42:34;24.70;99.90
22850;DHT22;11591;44.792;10.358;2023-04-24T14:44:59;24.70;99.70
22850;DHT22;11591;44.792;10.358;2023-04-24T14:47:25;24.80;99.30
22850;DHT22;11591;44.792;10.358;2023-04-24T14:49:51;25.00;98.30
22850;DHT22;11591;44.792;10.358;2023-04-24T14:52:17;25.00;97.70
22850;DHT22;11591;44.792;10.358;2023-04-24T14:54:43;25.00;97.30
22850;DHT22;11591;44.792;10.358;2023-04-24T14:57:09;24.80;97.70
22850;DHT22;11591;44.792;10.358;2023-04-24T14:59:35;24.80;98.10
22850;DHT22;11591;44.792;10.358;2023-04-24T15:02:01;24.80;97.70
22850;DHT22;11591;44.792;10.358;2023-04-24T15:04:28;24.80;97.90
22850;DHT22;11591;44.792;10.358;2023-04-24T15:06:54;24.80;97.00
22850;DHT22;11591;44.792;10.358;2023-04-24T15:09:24;24.80;96.40
22850;DHT22;11591;44.792;10.358;2023-04-24T15:11:51;25.00;95.90
22850;DHT22;11591;44.792;10.358;2023-04-24T15:14:18;25.00;95.70
22850;DHT22;11591;44.792;10.358;2023-04-24T15:16:44;25.20;95.80
22850;DHT22;11591;44.792;10.358;2023-04-24T15:19:10;25.40;94.90
22850;DHT22;11591;44.792;10.358;2023-04-24T15:21:37;25.70;94.90
22850;DHT22;11591;44.792;10.358;2023-04-24T15:24:04;25.80;94.90
22850;DHT22;11591;44.792;10.358;2023-04-24T15:26:30;26.00;94.80
22850;DHT22;11591;44.792;10.358;2023-04-24T15:28:56;26.20;95.00